sensor_id;sensor_type;location;lat;lon;timestamp;temperature;humidity
19437;DHT22;9854;50.968;4.168;2022-08-20T00:00:10;20.00;99.90
19437;DHT22;9854;50.968;4.168;2022-08-20T00:02:45;19.70;99.90
19437;DHT22;9854;50.968;4.168;2022-08-20T00:05:12;19.60;99.90
19437;DHT22;9854;50.968;4.168;2022-08-20T00:07:38;19.60;99.90
19437;DHT22;9854;50.968;4.168;2022-08-20T00:10:06;19.60;99.90
19437;DHT22;9854;50.968;4.168;2022-08-20T00:12:34;19.50;99.90
19437;DHT22;9854;50.968;4.168;2022-08-20T00:15:00;19.40;99.90
19437;DHT22;9854;50.968;4.168;2022-08-20T00:17:26;19.40;99.90
19437;DHT22;9854;50.968;4.168;2022-08-20T00:19:53;19.40;99.90
19437;DHT22;9854;50.968;4.168;2022-08-20T00:22:18;19.30;99.90
19437;DHT22;9854;50.968;4.168;2022-08-20T00:24:44;19.30;99.90
19437;DHT22;9854;50.968;4.168;2022-08-20T00:27:10;19.20;99.90
19437;DHT22;9854;50.968;4.168;2022-08-20T00:29:35;19.10;99.90
19437;DHT22;9854;50.968;4.168;2022-08-20T00:32:01;19.10;99.90
19437;DHT22;9854;50.968;4.168;2022-08-20T00:34:26;19.10;99.90
19437;DHT22;9854;50.968;4.168;2022-08-20T00:36:52;19.00;99.90
19437;DHT22;9854;50.968;4.168;2022-08-20T00:39:18;19.00;99.90
19437;DHT22;9854;50.968;4.168;2022-08-20T00:41:43;19.00;99.90
19437;DHT22;9854;50.968;4.168;2022-08-20T00:44:16;19.10;99.90
19437;DHT22;9854;50.968;4.168;2022-08-20T00:46:43;19.20;99.90
19437;DHT22;9854;50.968;4.168;2022-08-20T00:49:18;19.30;99.90
19437;DHT22;9854;50.968;4.168;2022-08-20T00:51:48;19.30;99.90
19437;DHT22;9854;50.968;4.168;2022-08-20T00:54:18;19.10;99.90
19437;DHT22;9854;50.968;4.168;2022-08-20T00:56:48;19.10;99.90
19437;DHT22;9854;50.968;4.168;2022-08-20T00:59:18;19.10;99.90
19437;DHT22;9854;50.968;4.168;2022-08-20T01:01:46;19.00;99.90
19437;DHT22;9854;50.968;4.168;2022-08-20T01:04:12;19.20;99.90
19437;DHT22;9854;50.968;4.168;2022-08-20T01:06:39;19.20;99.90
19437;DHT22;9854;50.968;4.168;2022-08-20T01:09:06;19.10;99.90
19437;DHT22;9854;50.968;4.168;2022-08-20T01:11:32;19.30;99.90
19437;DHT22;9854;50.968;4.168;2022-08-20T01:13:59;19.10;99.90
19437;DHT22;9854;50.968;4.168;2022-08-20T01:16:29;18.90;99.90
19437;DHT22;9854;50.968;4.168;2022-08-20T01:18:57;18.70;99.90
19437;DHT22;9854;50.968;4.168;2022-08-20T01:21:25;18.60;99.90
19437;DHT22;9854;50.968;4.168;2022-08-20T01:24:12;18.60;99.90
19437;DHT22;9854;50.968;4.168;2022-08-20T01:26:43;18.60;99.90
19437;DHT22;9854;50.968;4.168;2022-08-20T01:29:16;18.60;99.90
19437;DHT22;9854;50.968;4.168;2022-08-20T01:31:42;18.60;99.90
19437;DHT22;9854;50.968;4.168;2022-08-20T01:34:12;18.80;99.90
19437;DHT22;9854;50.968;4.168;2022-08-20T01:36:47;18.80;99.90
19437;DHT22;9854;50.968;4.168;2022-08-20T01:39:18;18.70;99.90
19437;DHT22;9854;50.968;4.168;2022-08-20T01:42:13;18.70;99.90
19437;DHT22;9854;50.968;4.168;2022-08-20T01:44:44;18.60;99.90
19437;DHT22;9854;50.968;4.168;2022-08-20T01:47:24;18.50;99.90
19437;DHT22;9854;50.968;4.168;2022-08-20T01:49:54;18.40;99.90
19437;DHT22;9854;50.968;4.168;2022-08-20T01:54:58;18.40;99.90
19437;DHT22;9854;50.968;4.168;2022-08-20T01:57:25;18.40;99.90
19437;DHT22;9854;50.968;4.168;2022-08-20T01:59:52;18.50;99.90
19437;DHT22;9854;50.968;4.168;2022-08-20T02:02:18;18.40;99.90
19437;DHT22;9854;50.968;4.168;2022-08-20T02:04:44;18.60;99.90
19437;DHT22;9854;50.968;4.168;2022-08-20T02:07:16;18.50;99.90
19437;DHT22;9854;50.968;4.168;2022-08-20T02:09:43;18.30;99.90
19437;DHT22;9854;50.968;4.168;2022-08-20T02:12:09;18.30;99.90
19437;DHT22;9854;50.968;4.168;2022-08-20T02:14:42;18.20;99.90
19437;DHT22;9854;50.968;4.168;2022-08-20T02:17:10;18.10;99.90
19437;DHT22;9854;50.968;4.168;2022-08-20T02:19:39;18.20;99.90
19437;DHT22;9854;50.968;4.168;2022-08-20T02:22:17;18.00;99.90
19437;DHT22;9854;50.968;4.168;2022-08-20T02:24:44;18.00;99.90
19437;DHT22;9854;50.968;4.168;2022-08-20T02:27:10;18.00;99.90
19437;DHT22;9854;50.968;4.168;2022-08-20T02:29:36;18.00;99.90
19437;DHT22;9854;50.968;4.168;2022-08-20T02:32:03;17.90;99.90
19437;DHT22;9854;50.968;4.168;2022-08-20T02:34:30;18.20;99.90
19437;DHT22;9854;50.968;4.168;2022-08-20T02:36:59;18.10;99.90
19437;DHT22;9854;50.968;4.168;2022-08-20T02:39:25;18.40;99.90
19437;DHT22;9854;50.968;4.168;2022-08-20T02:41:51;18.40;99.90
19437;DHT22;9854;50.968;4.168;2022-08-20T02:44:17;18.20;99.90
19437;DHT22;9854;50.968;4.168;2022-08-20T02:46:45;18.00;99.90
19437;DHT22;9854;50.968;4.168;2022-08-20T02:49:12;18.20;99.90
19437;DHT22;9854;50.968;4.168;2022-08-20T02:51:38;18.00;99.90
19437;DHT22;9854;50.968;4.168;2022-08-20T02:54:03;17.80;99.90
19437;DHT22;9854;50.968;4.168;2022-08-20T02:56:29;17.80;99.90
19437;DHT22;9854;50.968;4.168;2022-08-20T02:58:54;18.00;99.90
19437;DHT22;9854;50.968;4.168;2022-08-20T03:01:20;17.90;99.90
19437;DHT22;9854;50.968;4.168;2022-08-20T03:03:46;17.70;99.90
19437;DHT22;9854;50.968;4.168;2022-08-20T03:06:12;17.50;99.90
19437;DHT22;9854;50.968;4.168;2022-08-20T03:08:39;17.50;99.90
19437;DHT22;9854;50.968;4.168;2022-08-20T03:11:05;17.60;99.90
19437;DHT22;9854;50.968;4.168;2022-08-20T03:13:31;17.50;99.90
19437;DHT22;9854;50.968;4.168;2022-08-20T03:15:59;17.40;99.90
19437;DHT22;9854;50.968;4.168;2022-08-20T03:18:32;17.40;99.90
19437;DHT22;9854;50.968;4.168;2022-08-20T03:20:59;17.40;99.90
19437;DHT22;9854;50.968;4.168;2022-08-20T03:23:25;17.40;99.90
19437;DHT22;9854;50.968;4.168;2022-08-20T03:25:50;17.50;99.90
19437;DHT22;9854;50.968;4.168;2022-08-20T03:28:17;17.50;99.90
19437;DHT22;9854;50.968;4.168;2022-08-20T03:30:44;17.40;99.90
19437;DHT22;9854;50.968;4.168;2022-08-20T03:33:09;17.40;99.90
19437;DHT22;9854;50.968;4.168;2022-08-20T03:35:36;17.30;99.90
19437;DHT22;9854;50.968;4.168;2022-08-20T03:38:06;17.10;99.90
19437;DHT22;9854;50.968;4.168;2022-08-20T03:40:33;17.30;99.90
19437;DHT22;9854;50.968;4.168;2022-08-20T03:42:59;17.20;99.90
19437;DHT22;9854;50.968;4.168;2022-08-20T03:45:26;17.10;99.90
19437;DHT22;9854;50.968;4.168;2022-08-20T03:47:53;17.10;99.90
19437;DHT22;9854;50.968;4.168;2022-08-20T03:50:21;17.20;99.90
19437;DHT22;9854;50.968;4.168;2022-08-20T03:52:49;17.20;99.90
19437;DHT22;9854;50.968;4.168;2022-08-20T03:55:15;17.10;99.90
19437;DHT22;9854;50.968;4.168;2022-08-20T03:57:51;16.90;99.90
19437;DHT22;9854;50.968;4.168;2022-08-20T04:00:44;17.00;99.90
19437;DHT22;9854;50.968;4.168;2022-08-20T04:03:10;16.90;99.90
19437;DHT22;9854;50.968;4.168;2022-08-20T04:05:38;16.80;99.90
19437;DHT22;9854;50.968;4.168;2022-08-20T04:08:09;16.90;99.90
19437;DHT22;9854;50.968;4.168;2022-08-20T04:10:35;16.70;99.90
19437;DHT22;9854;50.968;4.168;2022-08-20T04:13:02;16.60;99.90
19437;DHT22;9854;50.968;4.168;2022-08-20T04:15:28;16.60;99.90
19437;DHT22;9854;50.968;4.168;2022-08-20T04:17:54;16.60;99.90
19437;DHT22;9854;50.968;4.168;2022-08-20T04:20:22;16.70;99.90
19437;DHT22;9854;50.968;4.168;2022-08-20T04:22:52;16.70;99.90
19437;DHT22;9854;50.968;4.168;2022-08-20T04:25:18;16.90;99.90
19437;DHT22;9854;50.968;4.168;2022-08-20T04:27:46;16.80;99.90
19437;DHT22;9854;50.968;4.168;2022-08-20T04:30:17;16.60;99.90
19437;DHT22;9854;50.968;4.168;2022-08-20T04:32:43;16.70;99.90
19437;DHT22;9854;50.968;4.168;2022-08-20T04:35:11;16.60;99.90
19437;DHT22;9854;50.968;4.168;2022-08-20T04:37:40;16.50;99.90
19437;DHT22;9854;50.968;4.168;2022-08-20T04:40:09;16.60;99.90
19437;DHT22;9854;50.968;4.168;2022-08-20T04:42:54;16.60;99.90
19437;DHT22;9854;50.968;4.168;2022-08-20T04:45:20;16.60;99.90
19437;DHT22;9854;50.968;4.168;2022-08-20T04:47:49;16.50;99.90
19437;DHT22;9854;50.968;4.168;2022-08-20T04:50:16;16.60;99.90
19437;DHT22;9854;50.968;4.168;2022-08-20T04:52:42;16.40;99.90
19437;DHT22;9854;50.968;4.168;2022-08-20T04:55:09;16.40;99.90
19437;DHT22;9854;50.968;4.168;2022-08-20T04:57:35;16.50;99.90
19437;DHT22;9854;50.968;4.168;2022-08-20T05:00:13;16.70;99.90
19437;DHT22;9854;50.968;4.168;2022-08-20T05:02:39;16.50;99.90
19437;DHT22;9854;50.968;4.168;2022-08-20T05:05:06;16.60;99.90
19437;DHT22;9854;50.968;4.168;2022-08-20T05:07:38;16.70;99.90
19437;DHT22;9854;50.968;4.168;2022-08-20T05:10:05;16.60;99.90
19437;DHT22;9854;50.968;4.168;2022-08-20T05:12:31;16.50;99.90
19437;DHT22;9854;50.968;4.168;2022-08-20T05:14:56;16.50;99.90
19437;DHT22;9854;50.968;4.168;2022-08-20T05:17:23;16.40;99.90
19437;DHT22;9854;50.968;4.168;2022-08-20T05:19:51;16.50;99.90
19437;DHT22;9854;50.968;4.168;2022-08-20T05:22:17;16.50;99.90
19437;DHT22;9854;50.968;4.168;2022-08-20T05:24:43;16.50;99.90
19437;DHT22;9854;50.968;4.168;2022-08-20T05:27:08;16.50;99.90
19437;DHT22;9854;50.968;4.168;2022-08-20T05:29:34;16.50;99.90
19437;DHT22;9854;50.968;4.168;2022-08-20T05:32:00;16.50;99.90
19437;DHT22;9854;50.968;4.168;2022-08-20T05:34:26;16.50;99.90
19437;DHT22;9854;50.968;4.168;2022-08-20T05:36:52;16.60;99.90
19437;DHT22;9854;50.968;4.168;2022-08-20T05:39:19;16.60;99.90
19437;DHT22;9854;50.968;4.168;2022-08-20T05:41:45;16.80;99.90
19437;DHT22;9854;50.968;4.168;2022-08-20T05:44:11;16.90;99.90
19437;DHT22;9854;50.968;4.168;2022-08-20T05:46:42;17.00;99.90
19437;DHT22;9854;50.968;4.168;2022-08-20T05:49:13;17.00;99.90
19437;DHT22;9854;50.968;4.168;2022-08-20T05:51:40;16.90;99.90
19437;DHT22;9854;50.968;4.168;2022-08-20T05:54:06;16.90;99.90
19437;DHT22;9854;50.968;4.168;2022-08-20T05:56:32;16.90;99.90
19437;DHT22;9854;50.968;4.168;2022-08-20T05:58:59;16.90;99.90
19437;DHT22;9854;50.968;4.168;2022-08-20T06:01:29;16.90;99.90
19437;DHT22;9854;50.968;4.168;2022-08-20T06:03:55;16.90;99.90
19437;DHT22;9854;50.968;4.168;2022-08-20T06:06:40;17.00;99.90
19437;DHT22;9854;50.968;4.168;2022-08-20T06:09:05;17.10;99.90
19437;DHT22;9854;50.968;4.168;2022-08-20T06:11:31;17.20;99.90
19437;DHT22;9854;50.968;4.168;2022-08-20T06:13:58;17.30;99.90
19437;DHT22;9854;50.968;4.168;2022-08-20T06:16:24;17.30;99.90
19437;DHT22;9854;50.968;4.168;2022-08-20T06:18:49;17.30;99.90
19437;DHT22;9854;50.968;4.168;2022-08-20T06:21:15;17.40;99.90
19437;DHT22;9854;50.968;4.168;2022-08-20T06:23:41;17.80;99.90
19437;DHT22;9854;50.968;4.168;2022-08-20T06:26:07;17.80;99.90
19437;DHT22;9854;50.968;4.168;2022-08-20T06:28:34;17.70;99.90
19437;DHT22;9854;50.968;4.168;2022-08-20T06:30:59;17.70;99.90
19437;DHT22;9854;50.968;4.168;2022-08-20T06:33:25;17.90;99.90
19437;DHT22;9854;50.968;4.168;2022-08-20T06:35:51;18.00;99.90
19437;DHT22;9854;50.968;4.168;2022-08-20T06:38:16;18.20;99.90
19437;DHT22;9854;50.968;4.168;2022-08-20T06:40:42;18.40;99.90
19437;DHT22;9854;50.968;4.168;2022-08-20T06:43:08;18.40;99.90
19437;DHT22;9854;50.968;4.168;2022-08-20T06:45:35;18.40;99.90
19437;DHT22;9854;50.968;4.168;2022-08-20T06:48:05;18.60;99.90
19437;DHT22;9854;50.968;4.168;2022-08-20T06:50:38;18.60;99.90
19437;DHT22;9854;50.968;4.168;2022-08-20T06:53:08;18.50;99.90
19437;DHT22;9854;50.968;4.168;2022-08-20T06:55:36;18.30;99.90
19437;DHT22;9854;50.968;4.168;2022-08-20T06:58:05;18.30;99.90
19437;DHT22;9854;50.968;4.168;2022-08-20T07:00:33;18.20;99.90
19437;DHT22;9854;50.968;4.168;2022-08-20T07:02:59;18.30;99.90
19437;DHT22;9854;50.968;4.168;2022-08-20T07:05:29;18.30;99.90
19437;DHT22;9854;50.968;4.168;2022-08-20T07:07:56;18.40;99.90
19437;DHT22;9854;50.968;4.168;2022-08-20T07:10:23;18.40;99.90
19437;DHT22;9854;50.968;4.168;2022-08-20T07:12:50;18.50;99.90
19437;DHT22;9854;50.968;4.168;2022-08-20T07:15:18;18.60;99.90
19437;DHT22;9854;50.968;4.168;2022-08-20T07:17:55;18.70;99.90
19437;DHT22;9854;50.968;4.168;2022-08-20T07:20:22;18.80;99.90
19437;DHT22;9854;50.968;4.168;2022-08-20T07:22:48;18.90;99.90
19437;DHT22;9854;50.968;4.168;2022-08-20T07:25:16;18.90;99.90
19437;DHT22;9854;50.968;4.168;2022-08-20T07:27:44;19.10;99.90
19437;DHT22;9854;50.968;4.168;2022-08-20T07:30:17;19.20;99.90
19437;DHT22;9854;50.968;4.168;2022-08-20T07:33:02;19.10;99.90
19437;DHT22;9854;50.968;4.168;2022-08-20T07:35:28;19.20;99.90
19437;DHT22;9854;50.968;4.168;2022-08-20T07:37:54;19.40;99.90
19437;DHT22;9854;50.968;4.168;2022-08-20T07:40:32;19.50;99.90
19437;DHT22;9854;50.968;4.168;2022-08-20T07:42:59;20.00;99.90
19437;DHT22;9854;50.968;4.168;2022-08-20T07:45:27;20.00;99.90
19437;DHT22;9854;50.968;4.168;2022-08-20T07:47:53;20.00;99.90
19437;DHT22;9854;50.968;4.168;2022-08-20T07:50:22;20.10;99.90
19437;DHT22;9854;50.968;4.168;2022-08-20T07:52:48;20.10;99.90
19437;DHT22;9854;50.968;4.168;2022-08-20T07:55:17;20.10;99.90
19437;DHT22;9854;50.968;4.168;2022-08-20T07:57:43;20.20;99.90
19437;DHT22;9854;50.968;4.168;2022-08-20T08:00:11;20.30;99.90
19437;DHT22;9854;50.968;4.168;2022-08-20T08:02:38;20.40;99.90
19437;DHT22;9854;50.968;4.168;2022-08-20T08:05:05;20.30;99.90
19437;DHT22;9854;50.968;4.168;2022-08-20T08:07:31;20.40;99.90
19437;DHT22;9854;50.968;4.168;2022-08-20T08:09:59;20.60;99.90
19437;DHT22;9854;50.968;4.168;2022-08-20T08:12:32;20.70;99.90
19437;DHT22;9854;50.968;4.168;2022-08-20T08:14:59;21.00;99.90
19437;DHT22;9854;50.968;4.168;2022-08-20T08:17:25;20.80;99.90
19437;DHT22;9854;50.968;4.168;2022-08-20T08:19:50;20.80;99.90
19437;DHT22;9854;50.968;4.168;2022-08-20T08:22:17;20.90;99.90
19437;DHT22;9854;50.968;4.168;2022-08-20T08:24:44;21.00;99.90
19437;DHT22;9854;50.968;4.168;2022-08-20T08:27:12;21.10;99.90
19437;DHT22;9854;50.968;4.168;2022-08-20T08:29:38;21.10;99.90
19437;DHT22;9854;50.968;4.168;2022-08-20T08:32:04;20.90;99.90
19437;DHT22;9854;50.968;4.168;2022-08-20T08:34:32;20.70;99.90
19437;DHT22;9854;50.968;4.168;2022-08-20T08:36:58;20.80;99.90
19437;DHT22;9854;50.968;4.168;2022-08-20T08:39:30;20.70;99.90
19437;DHT22;9854;50.968;4.168;2022-08-20T08:41:57;20.70;99.90
19437;DHT22;9854;50.968;4.168;2022-08-20T08:44:29;20.80;99.90
19437;DHT22;9854;50.968;4.168;2022-08-20T08:47:02;20.90;99.90
19437;DHT22;9854;50.968;4.168;2022-08-20T08:49:35;21.10;99.90
19437;DHT22;9854;50.968;4.168;2022-08-20T08:52:04;21.10;99.90
19437;DHT22;9854;50.968;4.168;2022-08-20T08:54:33;21.30;99.90
19437;DHT22;9854;50.968;4.168;2022-08-20T08:57:00;21.50;99.90
19437;DHT22;9854;50.968;4.168;2022-08-20T08:59:28;21.70;99.90
19437;DHT22;9854;50.968;4.168;2022-08-20T09:01:57;21.70;99.90
19437;DHT22;9854;50.968;4.168;2022-08-20T09:04:35;21.80;99.90
19437;DHT22;9854;50.968;4.168;2022-08-20T09:07:03;22.00;99.90
19437;DHT22;9854;50.968;4.168;2022-08-20T09:09:34;22.10;99.90
19437;DHT22;9854;50.968;4.168;2022-08-20T09:12:13;22.00;99.90
19437;DHT22;9854;50.968;4.168;2022-08-20T09:14:39;21.90;99.90
19437;DHT22;9854;50.968;4.168;2022-08-20T09:17:06;21.70;99.90
19437;DHT22;9854;50.968;4.168;2022-08-20T09:19:32;21.40;99.90
19437;DHT22;9854;50.968;4.168;2022-08-20T09:21:58;21.30;99.90
19437;DHT22;9854;50.968;4.168;2022-08-20T09:24:23;21.50;99.90
19437;DHT22;9854;50.968;4.168;2022-08-20T09:26:49;21.70;99.90
19437;DHT22;9854;50.968;4.168;2022-08-20T09:29:15;22.00;99.90
19437;DHT22;9854;50.968;4.168;2022-08-20T09:31:41;22.10;99.90
19437;DHT22;9854;50.968;4.168;2022-08-20T09:34:06;22.20;99.90
19437;DHT22;9854;50.968;4.168;2022-08-20T09:36:32;22.10;99.90
19437;DHT22;9854;50.968;4.168;2022-08-20T09:38:58;22.00;99.90
19437;DHT22;9854;50.968;4.168;2022-08-20T09:41:24;22.00;99.90
19437;DHT22;9854;50.968;4.168;2022-08-20T09:43:50;22.00;99.90
19437;DHT22;9854;50.968;4.168;2022-08-20T09:46:15;21.90;99.90
19437;DHT22;9854;50.968;4.168;2022-08-20T09:48:41;21.80;99.90
19437;DHT22;9854;50.968;4.168;2022-08-20T09:51:07;22.00;99.90
19437;DHT22;9854;50.968;4.168;2022-08-20T09:53:33;22.30;99.90
19437;DHT22;9854;50.968;4.168;2022-08-20T09:55:59;22.60;99.90
19437;DHT22;9854;50.968;4.168;2022-08-20T09:58:50;22.80;99.90
19437;DHT22;9854;50.968;4.168;2022-08-20T10:01:19;22.90;99.90
19437;DHT22;9854;50.968;4.168;2022-08-20T10:03:46;22.90;99.90
19437;DHT22;9854;50.968;4.168;2022-08-20T10:06:13;22.70;99.90
19437;DHT22;9854;50.968;4.168;2022-08-20T10:08:39;22.50;99.90
19437;DHT22;9854;50.968;4.168;2022-08-20T10:11:05;22.30;99.90
19437;DHT22;9854;50.968;4.168;2022-08-20T10:13:31;22.00;99.90
19437;DHT22;9854;50.968;4.168;2022-08-20T10:15:57;21.90;99.90
19437;DHT22;9854;50.968;4.168;2022-08-20T10:18:22;22.00;99.90
19437;DHT22;9854;50.968;4.168;2022-08-20T10:20:48;22.00;99.90
19437;DHT22;9854;50.968;4.168;2022-08-20T10:23:14;22.00;99.90
19437;DHT22;9854;50.968;4.168;2022-08-20T10:25:41;22.10;99.90
19437;DHT22;9854;50.968;4.168;2022-08-20T10:28:07;22.20;99.90
19437;DHT22;9854;50.968;4.168;2022-08-20T10:30:33;22.60;99.90
19437;DHT22;9854;50.968;4.168;2022-08-20T10:32:59;22.80;99.90
19437;DHT22;9854;50.968;4.168;2022-08-20T10:35:25;23.00;99.90
19437;DHT22;9854;50.968;4.168;2022-08-20T10:37:51;23.20;99.90
19437;DHT22;9854;50.968;4.168;2022-08-20T10:40:16;23.00;99.90
19437;DHT22;9854;50.968;4.168;2022-08-20T10:42:43;22.40;99.90
19437;DHT22;9854;50.968;4.168;2022-08-20T10:45:10;22.30;99.90
19437;DHT22;9854;50.968;4.168;2022-08-20T10:47:36;22.40;99.90
19437;DHT22;9854;50.968;4.168;2022-08-20T10:50:05;22.30;99.90
19437;DHT22;9854;50.968;4.168;2022-08-20T10:52:31;22.60;99.90
19437;DHT22;9854;50.968;4.168;2022-08-20T10:54:57;22.90;99.90
19437;DHT22;9854;50.968;4.168;2022-08-20T10:57:28;23.20;99.90
19437;DHT22;9854;50.968;4.168;2022-08-20T10:59:56;23.40;99.90
19437;DHT22;9854;50.968;4.168;2022-08-20T11:02:22;23.60;99.90
19437;DHT22;9854;50.968;4.168;2022-08-20T11:04:48;23.20;99.90
19437;DHT22;9854;50.968;4.168;2022-08-20T11:07:29;22.80;99.90
19437;DHT22;9854;50.968;4.168;2022-08-20T11:09:56;22.50;99.90
19437;DHT22;9854;50.968;4.168;2022-08-20T11:12:22;22.60;99.90
19437;DHT22;9854;50.968;4.168;2022-08-20T11:14:49;22.90;99.90
19437;DHT22;9854;50.968;4.168;2022-08-20T11:17:24;23.00;99.90
19437;DHT22;9854;50.968;4.168;2022-08-20T11:19:50;22.90;99.90
19437;DHT22;9854;50.968;4.168;2022-08-20T11:22:16;22.60;99.90
19437;DHT22;9854;50.968;4.168;2022-08-20T11:24:42;22.50;99.90
19437;DHT22;9854;50.968;4.168;2022-08-20T11:27:08;22.60;99.90
19437;DHT22;9854;50.968;4.168;2022-08-20T11:29:36;22.90;99.90
19437;DHT22;9854;50.968;4.168;2022-08-20T11:32:03;23.30;99.90
19437;DHT22;9854;50.968;4.168;2022-08-20T11:34:29;23.80;99.90
19437;DHT22;9854;50.968;4.168;2022-08-20T11:36:55;23.70;99.90
19437;DHT22;9854;50.968;4.168;2022-08-20T11:39:23;23.80;99.90
19437;DHT22;9854;50.968;4.168;2022-08-20T11:41:49;23.90;99.90
19437;DHT22;9854;50.968;4.168;2022-08-20T11:44:14;24.20;99.90
19437;DHT22;9854;50.968;4.168;2022-08-20T11:46:40;24.20;99.90
19437;DHT22;9854;50.968;4.168;2022-08-20T11:49:06;24.00;99.90
19437;DHT22;9854;50.968;4.168;2022-08-20T11:51:31;23.80;99.90
19437;DHT22;9854;50.968;4.168;2022-08-20T11:53:57;23.70;99.90
19437;DHT22;9854;50.968;4.168;2022-08-20T11:56:23;23.50;99.90
19437;DHT22;9854;50.968;4.168;2022-08-20T11:58:49;23.70;99.90
19437;DHT22;9854;50.968;4.168;2022-08-20T12:01:14;23.60;99.90
19437;DHT22;9854;50.968;4.168;2022-08-20T12:03:40;23.60;99.90
19437;DHT22;9854;50.968;4.168;2022-08-20T12:06:06;23.60;99.90
19437;DHT22;9854;50.968;4.168;2022-08-20T12:08:31;23.50;99.90
19437;DHT22;9854;50.968;4.168;2022-08-20T12:10:59;23.40;99.90
19437;DHT22;9854;50.968;4.168;2022-08-20T12:13:26;23.60;99.90
19437;DHT22;9854;50.968;4.168;2022-08-20T12:15:53;23.90;99.90
19437;DHT22;9854;50.968;4.168;2022-08-20T12:18:19;23.80;99.90
19437;DHT22;9854;50.968;4.168;2022-08-20T12:20:45;23.70;99.90
19437;DHT22;9854;50.968;4.168;2022-08-20T12:23:11;23.90;99.90
19437;DHT22;9854;50.968;4.168;2022-08-20T12:25:37;24.00;99.90
19437;DHT22;9854;50.968;4.168;2022-08-20T12:28:03;24.20;99.90
19437;DHT22;9854;50.968;4.168;2022-08-20T12:30:30;24.30;99.90
19437;DHT22;9854;50.968;4.168;2022-08-20T12:32:56;24.10;99.90
19437;DHT22;9854;50.968;4.168;2022-08-20T12:35:21;24.10;99.90
19437;DHT22;9854;50.968;4.168;2022-08-20T12:37:47;24.00;99.90
19437;DHT22;9854;50.968;4.168;2022-08-20T12:40:17;24.10;99.90
19437;DHT22;9854;50.968;4.168;2022-08-20T12:42:43;24.20;99.90
19437;DHT22;9854;50.968;4.168;2022-08-20T12:45:09;24.70;99.90
19437;DHT22;9854;50.968;4.168;2022-08-20T12:47:37;24.80;99.90
19437;DHT22;9854;50.968;4.168;2022-08-20T12:50:10;24.60;99.90
19437;DHT22;9854;50.968;4.168;2022-08-20T12:52:36;24.60;99.90
19437;DHT22;9854;50.968;4.168;2022-08-20T12:55:03;24.80;99.90
19437;DHT22;9854;50.968;4.168;2022-08-20T12:57:57;24.70;99.90
19437;DHT22;9854;50.968;4.168;2022-08-20T13:00:28;24.70;99.90
19437;DHT22;9854;50.968;4.168;2022-08-20T13:02:56;25.00;99.90
19437;DHT22;9854;50.968;4.168;2022-08-20T13:05:22;25.00;99.90
19437;DHT22;9854;50.968;4.168;2022-08-20T13:07:48;24.70;99.90
19437;DHT22;9854;50.968;4.168;2022-08-20T13:10:22;24.40;99.90
19437;DHT22;9854;50.968;4.168;2022-08-20T13:12:48;24.50;99.90
19437;DHT22;9854;50.968;4.168;2022-08-20T13:15:14;24.20;99.90
19437;DHT22;9854;50.968;4.168;2022-08-20T13:17:40;23.90;99.90
19437;DHT22;9854;50.968;4.168;2022-08-20T13:20:11;23.60;99.90
19437;DHT22;9854;50.968;4.168;2022-08-20T13:22:37;23.60;99.90
19437;DHT22;9854;50.968;4.168;2022-08-20T13:25:04;23.40;99.90
19437;DHT22;9854;50.968;4.168;2022-08-20T13:27:29;23.70;99.90
19437;DHT22;9854;50.968;4.168;2022-08-20T13:29:55;23.80;99.90
19437;DHT22;9854;50.968;4.168;2022-08-20T13:32:22;23.90;99.90
19437;DHT22;9854;50.968;4.168;2022-08-20T13:34:48;24.00;99.90
19437;DHT22;9854;50.968;4.168;2022-08-20T13:37:20;24.10;99.90
19437;DHT22;9854;50.968;4.168;2022-08-20T13:39:46;24.00;99.90
19437;DHT22;9854;50.968;4.168;2022-08-20T13:42:13;23.80;99.90
19437;DHT22;9854;50.968;4.168;2022-08-20T13:44:39;23.60;99.90
19437;DHT22;9854;50.968;4.168;2022-08-20T13:47:21;23.40;99.90
19437;DHT22;9854;50.968;4.168;2022-08-20T13:49:53;23.40;99.90
19437;DHT22;9854;50.968;4.168;2022-08-20T13:52:18;23.80;99.90
19437;DHT22;9854;50.968;4.168;2022-08-20T13:54:44;23.80;99.90
19437;DHT22;9854;50.968;4.168;2022-08-20T13:57:12;23.60;99.90
19437;DHT22;9854;50.968;4.168;2022-08-20T13:59:41;23.50;99.90
19437;DHT22;9854;50.968;4.168;2022-08-20T14:02:07;23.70;99.90
19437;DHT22;9854;50.968;4.168;2022-08-20T14:04:34;23.70;99.90
19437;DHT22;9854;50.968;4.168;2022-08-20T14:07:17;23.60;99.90
19437;DHT22;9854;50.968;4.168;2022-08-20T14:09:45;23.90;99.90
19437;DHT22;9854;50.968;4.168;2022-08-20T14:12:12;24.70;99.90
19437;DHT22;9854;50.968;4.168;2022-08-20T14:14:38;25.20;99.90
19437;DHT22;9854;50.968;4.168;2022-08-20T14:17:15;25.10;99.90
19437;DHT22;9854;50.968;4.168;2022-08-20T14:19:42;24.70;99.90
19437;DHT22;9854;50.968;4.168;2022-08-20T14:22:08;24.20;99.90
19437;DHT22;9854;50.968;4.168;2022-08-20T14:24:33;24.10;99.90
19437;DHT22;9854;50.968;4.168;2022-08-20T14:27:02;24.30;99.90
19437;DHT22;9854;50.968;4.168;2022-08-20T14:29:31;24.50;99.90
19437;DHT22;9854;50.968;4.168;2022-08-20T14:31:57;24.50;99.90
19437;DHT22;9854;50.968;4.168;2022-08-20T14:34:23;24.40;99.90
19437;DHT22;9854;50.968;4.168;2022-08-20T14:36:49;24.50;99.90
19437;DHT22;9854;50.968;4.168;2022-08-20T14:39:14;24.80;99.90
19437;DHT22;9854;50.968;4.168;2022-08-20T14:41:40;24.80;99.90
19437;DHT22;9854;50.968;4.168;2022-08-20T14:44:05;24.90;99.90
19437;DHT22;9854;50.968;4.168;2022-08-20T14:46:31;25.10;99.90
19437;DHT22;9854;50.968;4.168;2022-08-20T14:48:57;25.40;99.90
19437;DHT22;9854;50.968;4.168;2022-08-20T14:51:22;25.40;99.90
19437;DHT22;9854;50.968;4.168;2022-08-20T14:53:48;25.30;99.90
19437;DHT22;9854;50.968;4.168;2022-08-20T14:56:15;25.40;99.90
19437;DHT22;9854;50.968;4.168;2022-08-20T14:58:42;25.90;99.90
19437;DHT22;9854;50.968;4.168;2022-08-20T15:01:08;25.80;99.90
19437;DHT22;9854;50.968;4.168;2022-08-20T15:03:33;25.70;99.90
19437;DHT22;9854;50.968;4.168;2022-08-20T15:05:59;25.20;99.90
19437;DHT22;9854;50.968;4.168;2022-08-20T15:08:25;24.80;99.90
19437;DHT22;9854;50.968;4.168;2022-08-20T15:10:51;24.70;99.90
19437;DHT22;9854;50.968;4.168;2022-08-20T15:13:19;24.40;99.90
19437;DHT22;9854;50.968;4.168;2022-08-20T15:15:45;24.40;99.90
19437;DHT22;9854;50.968;4.168;2022-08-20T15:18:10;24.40;99.90
19437;DHT22;9854;50.968;4.168;2022-08-20T15:20:36;24.70;99.90
19437;DHT22;9854;50.968;4.168;2022-08-20T15:23:02;24.50;99.90
19437;DHT22;9854;50.968;4.168;2022-08-20T15:25:31;24.60;99.90
19437;DHT22;9854;50.968;4.168;2022-08-20T15:27:58;24.80;99.90
19437;DHT22;9854;50.968;4.168;2022-08-20T15:30:26;24.70;99.90
19437;DHT22;9854;50.968;4.168;2022-08-20T15:32:52;24.60;99.90
19437;DHT22;9854;50.968;4.168;2022-08-20T15:35:18;24.60;99.90
19437;DHT22;9854;50.968;4.168;2022-08-20T15:37:47;24.70;99.90
19437;DHT22;9854;50.968;4.168;2022-08-20T15:40:17;24.70;99.90
19437;DHT22;9854;50.968;4.168;2022-08-20T15:42:43;24.60;99.90
19437;DHT22;9854;50.968;4.168;2022-08-20T15:45:09;24.30;99.90
19437;DHT22;9854;50.968;4.168;2022-08-20T15:48:00;24.00;99.90
19437;DHT22;9854;50.968;4.168;2022-08-20T15:54:01;24.80;99.90